createdAt,value
2019-04-30T00:01:55.693Z,7.10
2019-04-30T00:04:29.950Z,7.00
2019-04-30T00:06:57.728Z,6.70
2019-04-30T00:09:28.590Z,6.70
2019-04-30T00:12:01.349Z,6.80
2019-04-30T00:14:37.288Z,6.90
2019-04-30T00:17:00.957Z,6.90
2019-04-30T00:19:30.584Z,6.70
2019-04-30T00:22:00.859Z,6.70
2019-04-30T00:24:31.657Z,6.70
2019-04-30T00:27:01.249Z,6.70
2019-04-30T00:29:31.166Z,6.80
2019-04-30T00:32:04.549Z,6.60
2019-04-30T00:34:35.949Z,6.50
2019-04-30T00:37:07.401Z,6.60
2019-04-30T00:39:35.634Z,6.70
2019-04-30T00:42:05.396Z,6.50
2019-04-30T00:44:35.681Z,6.60
2019-04-30T00:47:08.313Z,6.60
2019-04-30T00:49:38.092Z,6.40
2019-04-30T00:52:08.329Z,6.50
2019-04-30T00:54:37.848Z,6.30
2019-04-30T00:57:07.778Z,6.40
2019-04-30T00:59:39.775Z,6.40
2019-04-30T01:02:30.460Z,6.40
2019-04-30T01:04:58.251Z,6.40
2019-04-30T01:07:27.358Z,6.30
2019-04-30T01:09:56.905Z,6.20
2019-04-30T01:12:30.925Z,6.00
2019-04-30T01:14:59.003Z,6.10
2019-04-30T01:17:29.991Z,6.10
2019-04-30T01:19:59.794Z,6.00
2019-04-30T01:22:32.930Z,6.10
2019-04-30T01:25:07.682Z,6.10
2019-04-30T01:27:32.109Z,6.00
2019-04-30T01:30:02.068Z,6.00
2019-04-30T01:32:32.679Z,6.10
2019-04-30T01:35:02.296Z,6.00
2019-04-30T01:37:32.843Z,6.00
2019-04-30T01:40:03.172Z,6.10
2019-04-30T01:42:33.871Z,6.10
2019-04-30T01:45:03.555Z,6.10
2019-04-30T01:47:34.098Z,6.00
2019-04-30T01:50:05.006Z,6.00
2019-04-30T01:52:53.143Z,6.00
2019-04-30T01:55:42.829Z,5.90
2019-04-30T01:58:21.953Z,5.90
2019-04-30T02:00:54.347Z,6.00
2019-04-30T02:03:23.907Z,6.00
2019-04-30T02:05:53.429Z,5.90
2019-04-30T02:08:24.081Z,5.80
2019-04-30T02:10:53.593Z,5.80
2019-04-30T02:13:23.161Z,5.70
2019-04-30T02:15:52.687Z,5.70
2019-04-30T02:18:22.311Z,5.80
2019-04-30T02:20:51.839Z,5.70
2019-04-30T02:23:21.425Z,5.60
2019-04-30T02:25:52.005Z,5.50
2019-04-30T02:28:21.566Z,5.40
2019-04-30T02:30:51.100Z,5.30
2019-04-30T02:33:21.004Z,5.30
2019-04-30T02:36:10.256Z,5.30
2019-04-30T02:38:43.479Z,5.10
2019-04-30T02:41:13.269Z,5.20
2019-04-30T02:43:43.632Z,5.30
2019-04-30T02:46:14.623Z,5.40
2019-04-30T02:48:45.716Z,5.40
2019-04-30T02:51:16.714Z,5.40
2019-04-30T02:54:24.185Z,5.20
2019-04-30T02:56:59.656Z,5.20
2019-04-30T02:59:30.098Z,5.20
2019-04-30T03:02:00.048Z,5.10
2019-04-30T03:04:29.650Z,5.20
2019-04-30T03:06:59.789Z,5.10
2019-04-30T03:09:29.899Z,4.80
2019-04-30T03:12:00.416Z,4.90
2019-04-30T03:14:30.329Z,4.90
2019-04-30T03:17:10.224Z,4.70
2019-04-30T03:19:56.617Z,4.50
2019-04-30T03:22:29.948Z,4.50
2019-04-30T03:24:59.783Z,4.40
2019-04-30T03:27:30.268Z,4.40
2019-04-30T03:30:00.229Z,4.50
2019-04-30T03:32:36.189Z,4.60
2019-04-30T03:35:03.346Z,4.60
2019-04-30T03:37:33.437Z,4.60
2019-04-30T03:40:02.981Z,4.50
2019-04-30T03:42:32.549Z,4.60
2019-04-30T03:45:02.082Z,4.50
2019-04-30T03:47:31.670Z,4.50
2019-04-30T03:50:01.211Z,4.50
2019-04-30T03:52:30.738Z,4.60
2019-04-30T03:55:03.042Z,4.60
2019-04-30T03:57:32.533Z,4.60
2019-04-30T04:00:02.113Z,4.60
2019-04-30T04:02:45.762Z,4.70
2019-04-30T04:05:40.260Z,4.60
2019-04-30T04:08:33.778Z,4.60
2019-04-30T04:11:14.425Z,4.60
2019-04-30T04:13:44.020Z,4.60
2019-04-30T04:16:13.649Z,4.50
2019-04-30T04:18:43.230Z,4.50
2019-04-30T04:21:16.907Z,4.60
2019-04-30T04:23:45.848Z,4.70
2019-04-30T04:26:15.386Z,4.90
2019-04-30T04:28:44.958Z,4.90
2019-04-30T04:31:14.620Z,4.90
2019-04-30T04:33:44.217Z,5.00
2019-04-30T04:36:13.839Z,5.10
2019-04-30T04:38:43.419Z,5.20
2019-04-30T04:41:13.073Z,5.10
2019-04-30T04:43:42.626Z,5.20
2019-04-30T04:46:12.141Z,5.20
2019-04-30T04:48:41.720Z,5.20
2019-04-30T04:51:27.743Z,5.30
2019-04-30T04:53:42.521Z,5.40
2019-04-30T04:56:12.053Z,5.40
2019-04-30T04:58:41.620Z,5.50
2019-04-30T05:01:11.815Z,5.60
2019-04-30T05:03:41.561Z,5.70
2019-04-30T05:06:11.807Z,5.70
2019-04-30T05:08:41.561Z,5.80
2019-04-30T05:11:11.095Z,5.90
2019-04-30T05:13:40.688Z,6.00
2019-04-30T05:16:10.236Z,6.00
2019-04-30T05:18:39.813Z,5.80
2019-04-30T05:21:09.496Z,6.00
2019-04-30T05:23:41.129Z,6.10
2019-04-30T05:26:11.065Z,6.20
2019-04-30T05:28:40.740Z,6.30
2019-04-30T05:31:10.293Z,6.40
2019-04-30T05:33:39.863Z,6.50
2019-04-30T05:36:09.473Z,6.60
2019-04-30T05:38:39.279Z,6.50
2019-04-30T05:41:09.407Z,6.50
2019-04-30T05:43:39.005Z,6.70
2019-04-30T05:46:10.942Z,6.80
2019-04-30T05:48:39.888Z,7.00
2019-04-30T05:51:10.458Z,7.10
2019-04-30T05:53:40.108Z,7.10
2019-04-30T05:56:09.677Z,7.10
2019-04-30T05:58:39.805Z,7.20
2019-04-30T06:01:09.809Z,7.40
2019-04-30T06:03:39.504Z,7.40
2019-04-30T06:06:11.406Z,7.50
2019-04-30T06:08:48.959Z,7.60
2019-04-30T06:11:39.254Z,7.70
2019-04-30T06:14:31.213Z,7.70
2019-04-30T06:17:09.773Z,7.70
2019-04-30T06:19:39.717Z,7.80
2019-04-30T06:22:10.914Z,7.90
2019-04-30T06:24:41.970Z,8.10
2019-04-30T06:27:11.555Z,8.10
2019-04-30T06:29:41.689Z,8.20
2019-04-30T06:32:12.506Z,8.40
2019-04-30T06:34:42.487Z,8.40
2019-04-30T06:37:12.628Z,8.30
2019-04-30T06:39:42.242Z,8.60
2019-04-30T06:42:13.054Z,8.70
2019-04-30T06:44:42.873Z,8.80
2019-04-30T06:47:12.769Z,8.90
2019-04-30T06:49:42.450Z,9.10
2019-04-30T06:52:20.510Z,9.10
2019-04-30T06:54:44.284Z,9.10
2019-04-30T06:57:13.824Z,9.20
2019-04-30T06:59:43.380Z,9.30
2019-04-30T07:02:12.957Z,9.40
2019-04-30T07:04:42.532Z,9.50
2019-04-30T07:07:14.308Z,9.50
2019-04-30T07:10:00.925Z,9.60
2019-04-30T07:12:50.515Z,9.80
2019-04-30T07:15:20.092Z,9.80
2019-04-30T07:17:50.684Z,9.90
2019-04-30T07:20:20.324Z,10.10
2019-04-30T07:22:59.238Z,10.30
2019-04-30T07:25:21.140Z,10.40
2019-04-30T07:27:50.757Z,10.40
2019-04-30T07:30:21.349Z,10.60
2019-04-30T07:32:50.904Z,10.80
2019-04-30T07:35:20.508Z,11.00
2019-04-30T07:37:54.397Z,11.10
2019-04-30T07:40:21.324Z,11.10
2019-04-30T07:42:51.874Z,11.20
2019-04-30T07:45:25.555Z,11.20
2019-04-30T07:47:53.891Z,11.50
2019-04-30T07:50:24.158Z,11.70
2019-04-30T07:53:02.559Z,11.70
2019-04-30T07:55:25.265Z,11.90
2019-04-30T07:57:54.839Z,12.00
2019-04-30T08:00:24.394Z,12.00
2019-04-30T08:03:04.077Z,12.10
2019-04-30T08:05:40.175Z,12.50
2019-04-30T08:08:21.328Z,12.60
2019-04-30T08:10:40.840Z,12.70
2019-04-30T08:13:14.890Z,12.90
2019-04-30T08:15:45.238Z,13.00
2019-04-30T08:18:14.817Z,13.00
2019-04-30T08:20:44.422Z,13.10
2019-04-30T08:23:30.507Z,13.20
2019-04-30T08:25:45.216Z,13.30
2019-04-30T08:28:14.822Z,13.30
2019-04-30T08:30:44.432Z,13.50
2019-04-30T08:33:14.052Z,13.80
2019-04-30T08:35:43.661Z,14.00
2019-04-30T08:38:13.227Z,14.10
2019-04-30T08:40:55.628Z,14.10
2019-04-30T08:43:16.849Z,14.00
2019-04-30T08:45:48.732Z,13.80
2019-04-30T08:48:18.976Z,14.00
2019-04-30T08:50:49.667Z,14.00
2019-04-30T08:53:27.633Z,14.20
2019-04-30T08:55:50.913Z,14.30
2019-04-30T08:58:20.652Z,14.70
2019-04-30T09:00:50.275Z,14.90
2019-04-30T09:03:19.844Z,14.90
2019-04-30T09:06:03.591Z,15.10
2019-04-30T09:08:33.707Z,15.50
2019-04-30T09:11:03.273Z,15.50
2019-04-30T09:13:32.872Z,15.40
2019-04-30T09:16:03.478Z,15.70
2019-04-30T09:18:34.666Z,16.00
2019-04-30T09:21:06.517Z,16.20
2019-04-30T09:23:44.655Z,16.40
2019-04-30T09:26:08.530Z,16.50
2019-04-30T09:28:40.738Z,16.60
2019-04-30T09:31:09.225Z,16.80
2019-04-30T09:33:39.369Z,17.00
2019-04-30T09:36:09.265Z,17.10
2019-04-30T09:38:39.015Z,17.10
2019-04-30T09:41:09.587Z,17.20
2019-04-30T09:43:40.523Z,17.30
2019-04-30T09:46:19.209Z,17.40
2019-04-30T09:48:41.577Z,17.50
2019-04-30T09:51:11.768Z,17.20
2019-04-30T09:53:41.673Z,17.60
2019-04-30T09:56:11.348Z,17.70
2019-04-30T09:58:40.884Z,17.70
2019-04-30T10:01:10.508Z,17.20
2019-04-30T10:03:43.561Z,17.50
2019-04-30T10:06:13.360Z,17.90
2019-04-30T10:08:48.412Z,18.10
2019-04-30T10:11:23.289Z,18.40
2019-04-30T10:13:52.926Z,17.90
2019-04-30T10:16:51.500Z,17.40
2019-04-30T10:19:21.134Z,17.60
2019-04-30T10:21:50.685Z,17.30
2019-04-30T10:24:20.374Z,17.40
2019-04-30T10:26:50.086Z,17.40
2019-04-30T10:29:21.526Z,17.00
2019-04-30T10:31:51.317Z,17.00
2019-04-30T10:34:20.887Z,17.70
2019-04-30T10:36:50.613Z,17.90
2019-04-30T10:39:21.701Z,18.70
2019-04-30T10:41:51.789Z,19.20
2019-04-30T10:44:21.454Z,19.20
2019-04-30T10:46:51.031Z,18.50
2019-04-30T10:49:20.678Z,18.60
2019-04-30T10:51:50.404Z,19.10
2019-04-30T10:54:26.044Z,19.60
2019-04-30T10:56:51.509Z,19.20
2019-04-30T10:59:21.139Z,19.20
2019-04-30T11:01:51.737Z,18.60
2019-04-30T11:04:21.309Z,18.30
2019-04-30T11:06:50.868Z,18.20
2019-04-30T11:09:20.615Z,18.30
2019-04-30T11:11:50.195Z,19.40
2019-04-30T11:14:20.748Z,19.30
2019-04-30T11:16:51.695Z,18.90
2019-04-30T11:19:22.786Z,19.30
2019-04-30T11:21:52.672Z,19.60
2019-04-30T11:24:22.513Z,19.60
2019-04-30T11:26:52.946Z,19.30
2019-04-30T11:29:23.450Z,20.10
2019-04-30T11:32:00.008Z,20.20
2019-04-30T11:34:29.673Z,19.80
2019-04-30T11:36:59.267Z,19.10
2019-04-30T11:39:29.776Z,19.30
2019-04-30T11:41:59.512Z,19.20
2019-04-30T11:44:31.460Z,19.00
2019-04-30T11:47:31.901Z,19.60
2019-04-30T11:50:01.981Z,19.60
2019-04-30T11:52:32.976Z,20.10
2019-04-30T11:55:02.500Z,19.60
2019-04-30T11:57:32.141Z,20.70
2019-04-30T12:00:01.701Z,21.50
2019-04-30T12:02:43.283Z,22.10
2019-04-30T12:05:15.263Z,22.20
2019-04-30T12:07:59.720Z,22.30
2019-04-30T12:10:36.473Z,21.20
2019-04-30T12:13:21.133Z,21.60
2019-04-30T12:15:50.692Z,22.70
2019-04-30T12:18:20.342Z,23.10
2019-04-30T12:20:49.885Z,23.60
2019-04-30T12:23:19.441Z,23.80
2019-04-30T12:25:49.353Z,23.50
2019-04-30T12:28:19.528Z,23.10
2019-04-30T12:30:50.551Z,22.00
2019-04-30T12:33:20.109Z,22.00
2019-04-30T12:35:51.362Z,22.90
2019-04-30T12:38:24.029Z,23.60
2019-04-30T12:40:53.596Z,22.60
2019-04-30T12:43:23.196Z,23.50
2019-04-30T12:46:02.665Z,23.10
2019-04-30T12:48:42.104Z,23.50
2019-04-30T12:51:18.892Z,22.90
2019-04-30T12:53:52.374Z,22.30
2019-04-30T12:56:28.795Z,21.40
2019-04-30T12:58:58.463Z,22.40
2019-04-30T13:01:31.752Z,23.70
2019-04-30T13:04:01.360Z,24.40
2019-04-30T13:06:31.820Z,24.90
2019-04-30T13:09:02.326Z,25.20
2019-04-30T13:11:34.165Z,25.30
2019-04-30T13:14:05.160Z,25.60
2019-04-30T13:16:35.085Z,25.10
2019-04-30T13:19:04.779Z,23.50
2019-04-30T13:21:34.360Z,23.00
2019-04-30T13:24:04.015Z,21.90
2019-04-30T13:26:33.616Z,23.20
2019-04-30T13:29:08.327Z,23.70
2019-04-30T13:31:40.063Z,24.10
2019-04-30T13:34:29.797Z,22.80
2019-04-30T13:36:59.383Z,22.30
2019-04-30T13:39:34.300Z,23.10
2019-04-30T13:42:15.870Z,23.50
2019-04-30T13:44:40.393Z,22.40
2019-04-30T13:47:10.944Z,23.70
2019-04-30T13:49:40.529Z,23.20
2019-04-30T13:52:10.121Z,23.20
2019-04-30T13:54:39.687Z,23.00
2019-04-30T13:57:09.243Z,21.80
2019-04-30T13:59:38.755Z,21.20
2019-04-30T14:02:08.800Z,20.90
2019-04-30T14:05:06.504Z,20.30
2019-04-30T14:08:09.395Z,19.90
2019-04-30T14:10:41.764Z,19.50
2019-04-30T14:13:11.641Z,19.00
2019-04-30T14:15:41.417Z,19.30
2019-04-30T14:18:10.971Z,19.10
2019-04-30T14:20:40.691Z,19.20
2019-04-30T14:23:10.745Z,19.60
2019-04-30T14:25:40.459Z,19.40
2019-04-30T14:28:10.071Z,19.80
2019-04-30T14:30:39.824Z,19.80
2019-04-30T14:33:09.572Z,20.00
2019-04-30T14:35:39.396Z,20.30
2019-04-30T14:38:09.178Z,21.00
2019-04-30T14:40:40.433Z,21.50
2019-04-30T14:43:15.747Z,21.90
2019-04-30T14:46:04.297Z,22.30
2019-04-30T14:48:40.814Z,22.30
2019-04-30T14:51:10.968Z,21.90
2019-04-30T14:54:09.563Z,21.70
2019-04-30T14:56:45.343Z,20.60
2019-04-30T14:59:40.380Z,21.20
2019-04-30T15:02:26.352Z,20.30
2019-04-30T15:04:55.991Z,20.20
2019-04-30T15:07:25.600Z,20.80
2019-04-30T15:09:55.247Z,20.70
2019-04-30T15:12:25.033Z,20.40
2019-04-30T15:14:56.241Z,20.60
2019-04-30T15:17:25.828Z,20.50
2019-04-30T15:19:55.411Z,21.10
2019-04-30T15:22:24.960Z,21.90
2019-04-30T15:24:54.497Z,22.20
2019-04-30T15:27:24.116Z,21.70
2019-04-30T15:29:57.264Z,21.30
2019-04-30T15:32:25.112Z,22.40
2019-04-30T15:34:54.777Z,23.00
2019-04-30T15:37:24.413Z,22.80
2019-04-30T15:39:54.009Z,22.90
2019-04-30T15:42:23.756Z,22.60
2019-04-30T15:44:53.377Z,22.40
2019-04-30T15:47:23.517Z,22.00
2019-04-30T15:49:53.102Z,22.80
2019-04-30T15:52:22.667Z,23.60
2019-04-30T15:54:53.011Z,23.90
2019-04-30T15:57:22.559Z,24.10
2019-04-30T15:59:52.274Z,24.10
2019-04-30T16:02:29.935Z,24.00
2019-04-30T16:05:17.403Z,24.10
2019-04-30T16:07:59.897Z,24.30
2019-04-30T16:10:58.520Z,24.50
2019-04-30T16:13:31.905Z,23.60
2019-04-30T16:16:01.499Z,24.10
2019-04-30T16:18:41.507Z,24.10
2019-04-30T16:21:11.153Z,23.70
2019-04-30T16:23:40.706Z,22.90
2019-04-30T16:26:10.281Z,23.10
2019-04-30T16:28:39.848Z,23.00
2019-04-30T16:31:09.736Z,23.20
2019-04-30T16:33:39.439Z,23.20
2019-04-30T16:36:09.117Z,23.00
2019-04-30T16:38:39.839Z,22.80
2019-04-30T16:41:09.457Z,22.90
2019-04-30T16:43:39.032Z,22.70
2019-04-30T16:46:08.589Z,22.10
2019-04-30T16:48:38.865Z,22.10
2019-04-30T16:51:09.096Z,21.80
2019-04-30T16:53:40.252Z,21.40
2019-04-30T16:56:10.965Z,21.00
2019-04-30T16:58:58.290Z,20.50
2019-04-30T17:01:28.288Z,19.70
2019-04-30T17:04:03.632Z,19.70
2019-04-30T17:06:34.961Z,19.50
2019-04-30T17:09:12.189Z,19.70
2019-04-30T17:12:00.518Z,19.70
2019-04-30T17:14:30.876Z,19.70
2019-04-30T17:17:01.571Z,19.60
2019-04-30T17:19:31.136Z,19.40
2019-04-30T17:22:00.676Z,19.40
2019-04-30T17:24:30.374Z,19.30
2019-04-30T17:26:59.930Z,19.20
2019-04-30T17:29:29.500Z,19.10
2019-04-30T17:31:59.085Z,18.90
2019-04-30T17:34:28.880Z,19.00
2019-04-30T17:36:59.964Z,19.00
2019-04-30T17:39:29.517Z,18.90
2019-04-30T17:41:59.203Z,18.80
2019-04-30T17:44:28.986Z,18.70
2019-04-30T17:47:00.122Z,18.40
2019-04-30T17:49:29.752Z,18.40
2019-04-30T17:51:59.302Z,18.30
2019-04-30T17:54:28.843Z,18.20
2019-04-30T17:56:58.472Z,18.10
2019-04-30T17:59:28.032Z,18.00
2019-04-30T18:02:01.384Z,17.90
2019-04-30T18:04:30.973Z,17.80
2019-04-30T18:07:00.515Z,17.50
2019-04-30T18:09:30.181Z,17.40
2019-04-30T18:11:59.736Z,17.20
2019-04-30T18:14:29.302Z,16.90
2019-04-30T18:16:59.452Z,16.70
2019-04-30T18:19:49.727Z,16.50
2019-04-30T18:22:40.110Z,16.40
2019-04-30T18:25:17.713Z,16.30
2019-04-30T18:27:54.044Z,16.20
2019-04-30T18:30:28.987Z,16.10
2019-04-30T18:32:58.521Z,15.80
2019-04-30T18:35:28.679Z,15.70
2019-04-30T18:38:09.604Z,15.60
2019-04-30T18:40:39.746Z,15.70
2019-04-30T18:43:09.861Z,15.50
2019-04-30T18:45:41.346Z,15.40
2019-04-30T18:48:15.652Z,15.40
2019-04-30T18:50:45.532Z,15.20
2019-04-30T18:53:19.695Z,15.10
2019-04-30T18:55:50.750Z,15.00
2019-04-30T18:58:20.441Z,14.80
2019-04-30T19:00:51.057Z,14.50
2019-04-30T19:03:21.840Z,14.40
2019-04-30T19:05:58.610Z,14.40
2019-04-30T19:08:33.520Z,14.40
2019-04-30T19:11:18.803Z,14.40
2019-04-30T19:14:11.497Z,14.10
2019-04-30T19:17:09.533Z,14.10
2019-04-30T19:19:56.018Z,14.10
2019-04-30T19:22:28.556Z,14.00
2019-04-30T19:25:02.822Z,13.90
2019-04-30T19:27:32.135Z,13.80
2019-04-30T19:30:01.764Z,13.80
2019-04-30T19:32:32.384Z,13.80
2019-04-30T19:35:01.963Z,13.90
2019-04-30T19:37:33.223Z,13.70
2019-04-30T19:40:02.816Z,13.50
2019-04-30T19:42:32.518Z,13.30
2019-04-30T19:45:09.352Z,13.00
2019-04-30T19:47:33.311Z,12.90
2019-04-30T19:50:02.953Z,12.80
2019-04-30T19:52:33.493Z,12.60
2019-04-30T19:55:03.083Z,12.50
2019-04-30T19:57:32.648Z,12.50
2019-04-30T20:00:02.201Z,12.50
2019-04-30T20:02:31.812Z,12.50
2019-04-30T20:05:01.354Z,12.50
2019-04-30T20:07:30.972Z,12.40
2019-04-30T20:10:03.929Z,12.30
2019-04-30T20:12:33.023Z,12.10
2019-04-30T20:15:02.587Z,11.90
2019-04-30T20:17:32.166Z,11.80
2019-04-30T20:20:01.672Z,11.70
2019-04-30T20:22:31.224Z,11.60
2019-04-30T20:25:00.856Z,11.40
2019-04-30T20:27:30.400Z,11.30
2019-04-30T20:29:59.962Z,11.20
2019-04-30T20:32:36.082Z,11.10
2019-04-30T20:35:00.712Z,11.00
2019-04-30T20:37:30.282Z,11.00
2019-04-30T20:40:04.677Z,11.00
2019-04-30T20:42:34.220Z,10.90
2019-04-30T20:45:04.135Z,10.90
2019-04-30T20:47:33.688Z,10.90
2019-04-30T20:50:03.301Z,11.00
2019-04-30T20:52:32.860Z,11.20
2019-04-30T20:55:02.444Z,11.40
2019-04-30T20:57:32.103Z,11.50
2019-04-30T21:00:01.679Z,11.60
2019-04-30T21:02:31.757Z,11.50
2019-04-30T21:05:01.354Z,11.60
2019-04-30T21:07:30.946Z,11.60
2019-04-30T21:10:00.539Z,11.50
2019-04-30T21:12:30.108Z,11.50
2019-04-30T21:14:59.696Z,11.60
2019-04-30T21:17:29.302Z,11.60
2019-04-30T21:20:00.876Z,11.80
2019-04-30T21:22:30.084Z,12.00
2019-04-30T21:25:00.643Z,12.10
2019-04-30T21:27:30.538Z,12.20
2019-04-30T21:30:00.317Z,12.20
2019-04-30T21:32:48.527Z,12.20
2019-04-30T21:35:36.789Z,12.20
2019-04-30T21:38:06.531Z,12.20
2019-04-30T21:40:36.776Z,12.20
2019-04-30T21:43:06.491Z,12.20
2019-04-30T21:45:36.040Z,12.20
2019-04-30T21:48:05.585Z,12.20
2019-04-30T21:50:35.163Z,12.20
2019-04-30T21:53:04.740Z,12.20
2019-04-30T21:55:34.295Z,12.30
2019-04-30T21:58:03.960Z,12.30
2019-04-30T22:00:49.521Z,12.30
2019-04-30T22:03:20.756Z,12.20
2019-04-30T22:05:50.296Z,12.10
2019-04-30T22:08:19.842Z,12.00
2019-04-30T22:10:49.371Z,12.00
2019-04-30T22:13:18.900Z,11.90
2019-04-30T22:15:48.468Z,11.70
2019-04-30T22:18:18.027Z,11.80
2019-04-30T22:20:47.587Z,11.80
2019-04-30T22:23:17.152Z,11.90
2019-04-30T22:25:46.724Z,11.90
2019-04-30T22:28:16.244Z,12.00
2019-04-30T22:30:45.888Z,12.10
2019-04-30T22:33:15.556Z,12.10
2019-04-30T22:36:02.512Z,12.00
2019-04-30T22:38:35.885Z,12.00
2019-04-30T22:41:05.447Z,12.00
2019-04-30T22:43:35.128Z,12.10
2019-04-30T22:46:11.620Z,12.20
2019-04-30T22:48:41.153Z,12.10
2019-04-30T22:51:10.738Z,12.00
2019-04-30T22:53:40.269Z,12.10
2019-04-30T22:56:09.844Z,12.00
2019-04-30T22:58:39.438Z,11.60
2019-04-30T23:01:20.385Z,11.60
2019-04-30T23:03:51.560Z,11.80
2019-04-30T23:06:21.190Z,12.00
2019-04-30T23:08:50.715Z,12.10
2019-04-30T23:11:20.240Z,12.10
2019-04-30T23:13:49.793Z,11.90
2019-04-30T23:16:19.361Z,11.80
2019-04-30T23:18:48.964Z,11.50
2019-04-30T23:21:18.504Z,11.60
2019-04-30T23:23:48.053Z,11.70
2019-04-30T23:26:17.595Z,11.90
2019-04-30T23:28:47.181Z,11.70
2019-04-30T23:31:16.750Z,11.30
2019-04-30T23:33:46.321Z,11.30
2019-04-30T23:36:15.891Z,11.30
2019-04-30T23:38:45.419Z,11.10
2019-04-30T23:41:14.986Z,11.30
2019-04-30T23:43:44.507Z,11.50
2019-04-30T23:46:14.036Z,11.70
2019-04-30T23:48:43.621Z,11.50
2019-04-30T23:51:13.147Z,11.50
2019-04-30T23:53:42.726Z,11.60
2019-04-30T23:56:12.268Z,11.90
2019-04-30T23:58:41.832Z,11.90
